Terminal Aerodrome Forecast
Issued by NWS

Home | Current Version | Previous Version | Text Only | Print | Product List | Glossary Off
Versions: 1 2 3 4 5 6 7 8 9 10 11 12 13 14 15 16 17 18 19 20 21 22 23 24 25 26 27 28 29 30 31

000
FTUS43 KDLH 281700 RRA
TAFBRD
TAF
KBRD 281743Z 2818/2918 20015G28KT P6SM SCT060
     FM290200 18009KT P6SM VCTS SCT060CB WS020/21030KT
     FM291000 25008KT 4SM -SHRA OVC015
     FM291400 36010KT 5SM -SHRA OVC020=

USA.gov is the U.S. government's official web portal to all federal, state and local government web resources and services.